Time;durP1;ratioP1;P1;durP2;ratioP2;P2;SDS_P1;SDS_P2;PMS_P1;PMS_P2;Temp;Humidity;BMP_temperature;BMP_pressure;BME280_temperature;BME280_humidity;BME280_pressure;Samples;Min_cycle;Max_cycle;Signal;HPM_P1;HPM_P2
2020/12/06 00:02:07;;;;;;;1.50;1.50;;;;;;;1.30;99.63;99601.09;4405377;32;20195;-70
2020/12/06 00:04:32;;;;;;;2.03;1.92;;;;;;;1.39;99.28;99593.97;4415604;32;20949;-70
2020/12/06 00:06:58;;;;;;;1.58;1.58;;;;;;;1.43;98.49;99585.53;4416590;32;20065;-70
2020/12/06 00:09:24;;;;;;;1.58;1.58;;;;;;;1.45;98.85;99582.69;4427172;32;20175;-70
2020/12/06 00:11:49;;;;;;;1.70;1.70;;;;;;;1.43;98.65;99577.62;4421089;32;20092;-69
2020/12/06 00:14:15;;;;;;;1.60;1.60;;;;;;;1.41;98.88;99561.16;4424495;32;20187;-72
2020/12/06 00:16:40;;;;;;;1.50;1.50;;;;;;;1.43;98.21;99574.16;4413033;32;20123;-70
2020/12/06 00:19:06;;;;;;;2.12;2.03;;;;;;;1.39;98.83;99568.41;4414497;32;20088;-70
2020/12/06 00:21:31;;;;;;;1.50;1.50;;;;;;;1.44;98.71;99560.00;4422827;32;20093;-70
2020/12/06 00:23:56;;;;;;;1.62;1.62;;;;;;;1.44;97.83;99573.19;4410179;32;20093;-70
2020/12/06 00:26:23;;;;;;;2.97;2.45;;;;;;;1.31;98.08;99568.47;4408775;32;20934;-70
2020/12/06 00:28:49;;;;;;;1.50;1.50;;;;;;;1.23;97.87;99569.38;4407181;32;20096;-70
2020/12/06 00:31:14;;;;;;;1.50;1.50;;;;;;;1.11;98.35;99576.03;4406130;32;20060;-70
2020/12/06 00:33:40;;;;;;;1.92;1.83;;;;;;;1.03;98.07;99579.53;4391355;32;21184;-70
2020/12/06 00:36:05;;;;;;;1.40;1.40;;;;;;;0.97;98.75;99574.97;4405928;32;20073;-71
2020/12/06 00:38:30;;;;;;;1.60;1.60;;;;;;;0.89;99.42;99567.94;4396408;32;20084;-71
2020/12/06 00:40:56;;;;;;;1.60;1.60;;;;;;;0.81;99.31;99564.53;4426652;32;20072;-71
2020/12/06 00:43:21;;;;;;;1.95;1.90;;;;;;;0.75;99.76;99564.22;4417710;32;20073;-71
2020/12/06 00:45:47;;;;;;;2.00;1.90;;;;;;;0.70;100.00;99561.28;4417335;32;20096;-69
2020/12/06 00:48:12;;;;;;;1.45;1.45;;;;;;;0.67;100.00;99551.13;4419657;32;20154;-70
2020/12/06 00:50:37;;;;;;;1.80;1.80;;;;;;;0.65;100.00;99558.34;4419625;32;20672;-70
2020/12/06 00:53:03;;;;;;;1.50;1.50;;;;;;;0.58;100.00;99546.88;4387605;32;20461;-69
2020/12/06 00:55:28;;;;;;;1.65;1.65;;;;;;;0.59;100.00;99556.41;4422797;32;20064;-70
2020/12/06 00:57:54;;;;;;;1.42;1.42;;;;;;;0.48;100.00;99548.91;4427510;32;20148;-69
2020/12/06 01:00:19;;;;;;;1.70;1.70;;;;;;;0.58;100.00;99578.44;4424683;32;20075;-69
2020/12/06 01:02:44;;;;;;;1.62;1.62;;;;;;;0.56;100.00;99573.34;4412287;32;20095;-69
2020/12/06 01:05:10;;;;;;;1.40;1.40;;;;;;;0.46;100.00;99556.97;4428856;32;20084;-70
2020/12/06 01:07:39;;;;;;;1.75;1.75;;;;;;;0.60;100.00;99579.09;4413474;32;20792;-69
2020/12/06 01:10:08;;;;;;;1.50;1.50;;;;;;;0.63;100.00;99570.06;4429524;32;20183;-70
2020/12/06 01:12:34;;;;;;;1.52;1.52;;;;;;;0.65;100.00;99552.28;4417156;32;20098;-69
2020/12/06 01:14:59;;;;;;;1.60;1.60;;;;;;;0.69;100.00;99561.44;4426020;32;20557;-70
2020/12/06 01:17:25;;;;;;;1.60;1.60;;;;;;;0.71;100.00;99562.12;4415758;32;20083;-70
2020/12/06 01:19:50;;;;;;;1.40;1.40;;;;;;;0.74;100.00;99551.22;4416439;32;20157;-70
2020/12/06 01:22:16;;;;;;;1.70;1.70;;;;;;;0.74;100.00;99554.69;4425527;32;21022;-70
2020/12/06 01:24:41;;;;;;;2.00;1.90;;;;;;;0.72;100.00;99561.94;4431353;32;20084;-70
2020/12/06 01:27:06;;;;;;;1.50;1.50;;;;;;;0.77;100.00;99568.50;4431321;32;20915;-70
2020/12/06 01:29:32;;;;;;;1.55;1.55;;;;;;;0.79;100.00;99564.69;4433095;32;20079;-70
2020/12/06 01:31:57;;;;;;;1.70;1.70;;;;;;;0.80;100.00;99568.16;4425747;32;20069;-70
2020/12/06 01:34:22;;;;;;;1.58;1.58;;;;;;;0.79;100.00;99563.88;4415422;32;20076;-70
2020/12/06 01:36:51;;;;;;;11.95;2.12;;;;;;;0.77;100.00;99547.44;4426949;32;20079;-70
2020/12/06 01:39:20;;;;;;;1.48;1.48;;;;;;;0.77;100.00;99550.87;4428939;32;20068;-70
2020/12/06 01:41:45;;;;;;;2.28;2.08;;;;;;;0.72;100.00;99561.13;4427635;32;20804;-70
2020/12/06 01:44:11;;;;;;;1.85;1.80;;;;;;;0.66;100.00;99565.25;4428644;32;20081;-70
2020/12/06 01:46:37;;;;;;;1.70;1.70;;;;;;;0.62;100.00;99563.97;4415529;32;20142;-70
2020/12/06 01:49:02;;;;;;;1.60;1.60;;;;;;;0.56;100.00;99547.03;4426719;32;20083;-70
2020/12/06 01:51:27;;;;;;;1.70;1.70;;;;;;;0.53;100.00;99557.09;4413177;32;20153;-70
2020/12/06 01:53:53;;;;;;;1.50;1.50;;;;;;;0.52;100.00;99566.00;4418989;32;20131;-70
2020/12/06 01:56:18;;;;;;;1.70;1.70;;;;;;;0.49;100.00;99566.34;4411615;32;20160;-70
2020/12/06 01:58:44;;;;;;;1.70;1.70;;;;;;;0.45;100.00;99570.28;4402410;32;20061;-70
2020/12/06 02:01:09;;;;;;;1.60;1.60;;;;;;;0.42;100.00;99576.72;4397367;32;20061;-70
2020/12/06 02:03:38;;;;;;;1.40;1.40;;;;;;;0.41;100.00;99601.38;4412479;32;20057;-70
2020/12/06 02:06:03;;;;;;;1.50;1.50;;;;;;;0.42;100.00;99602.22;4409586;32;20206;-70
2020/12/06 02:08:29;;;;;;;1.58;1.58;;;;;;;0.40;100.00;99598.91;4402379;32;20092;-70
2020/12/06 02:10:54;;;;;;;1.70;1.70;;;;;;;0.36;100.00;99599.25;4406041;32;20103;-70
2020/12/06 02:13:21;;;;;;;1.50;1.50;;;;;;;0.36;100.00;99587.91;4402166;32;20085;-70
2020/12/06 02:15:46;;;;;;;1.80;1.80;;;;;;;0.32;100.00;99590.06;4401323;32;20077;-70
2020/12/06 02:18:11;;;;;;;1.70;1.70;;;;;;;0.31;100.00;99601.59;4418138;32;20104;-71
2020/12/06 02:20:37;;;;;;;1.85;1.85;;;;;;;0.25;100.00;99586.47;4399273;32;20073;-70
2020/12/06 02:23:04;;;;;;;1.40;1.40;;;;;;;0.29;100.00;99584.31;4407429;32;20171;-70
2020/12/06 02:25:33;;;;;;;1.60;1.60;;;;;;;0.28;100.00;99578.25;4411147;32;20089;-70
2020/12/06 02:27:58;;;;;;;1.50;1.50;;;;;;;0.28;100.00;99575.63;4417521;32;20064;-70
2020/12/06 02:30:23;;;;;;;1.80;1.80;;;;;;;0.28;100.00;99565.09;4414696;32;20071;-70
2020/12/06 02:32:49;;;;;;;2.10;2.00;;;;;;;0.28;100.00;99570.34;4413481;32;20154;-70
2020/12/06 02:35:14;;;;;;;1.60;1.60;;;;;;;0.30;100.00;99557.84;4414822;32;20084;-70
2020/12/06 02:37:40;;;;;;;1.50;1.50;;;;;;;0.30;100.00;99542.06;4410433;32;20072;-70
2020/12/06 02:40:05;;;;;;;1.50;1.50;;;;;;;0.31;100.00;99538.47;4399334;32;20956;-70
2020/12/06 02:42:30;;;;;;;1.70;1.70;;;;;;;0.32;100.00;99544.53;4395861;32;20069;-69
2020/12/06 02:44:56;;;;;;;1.45;1.45;;;;;;;0.31;100.00;99567.37;4413845;32;20075;-70
2020/12/06 02:47:21;;;;;;;1.55;1.55;;;;;;;0.28;100.00;99549.31;4412079;32;20083;-70
2020/12/06 02:49:46;;;;;;;1.67;1.65;;;;;;;0.24;100.00;99555.88;4412914;32;20085;-70
2020/12/06 02:52:12;;;;;;;1.50;1.50;;;;;;;0.21;100.00;99566.75;4412545;32;20077;-70
2020/12/06 02:54:37;;;;;;;1.62;1.62;;;;;;;0.18;100.00;99572.34;4415046;32;20072;-70
2020/12/06 02:57:03;;;;;;;1.60;1.60;;;;;;;0.18;100.00;99567.91;4417213;32;20837;-70
2020/12/06 02:59:28;;;;;;;1.70;1.70;;;;;;;0.13;100.00;99557.06;4424010;32;20631;-71
2020/12/06 03:01:53;;;;;;;1.52;1.52;;;;;;;-0.07;100.00;99529.53;4421286;32;20642;-70
2020/12/06 03:04:19;;;;;;;2.85;2.75;;;;;;;0.30;100.00;99578.88;4414932;32;20056;-70
2020/12/06 03:06:44;;;;;;;1.40;1.40;;;;;;;0.35;100.00;99576.56;4422016;32;20061;-69
2020/12/06 03:09:10;;;;;;;1.70;1.70;;;;;;;0.41;100.00;99584.78;4424721;32;20077;-69
2020/12/06 03:11:35;;;;;;;1.77;1.73;;;;;;;0.45;100.00;99592.16;4403839;32;20069;-70
2020/12/06 03:14:00;;;;;;;2.10;2.00;;;;;;;0.46;100.00;99595.59;4413336;32;20092;-70
2020/12/06 03:16:26;;;;;;;2.28;2.17;;;;;;;0.46;100.00;99587.72;4412336;32;20495;-70
2020/12/06 03:18:54;;;;;;;1.50;1.50;;;;;;;0.47;100.00;99586.75;4428627;32;20126;-70
2020/12/06 03:21:19;;;;;;;1.92;1.83;;;;;;;0.50;100.00;99591.63;4428339;32;20090;-70
2020/12/06 03:23:44;;;;;;;1.70;1.70;;;;;;;0.52;100.00;99592.31;4404776;32;20970;-70
2020/12/06 03:26:10;;;;;;;1.65;1.65;;;;;;;0.37;100.00;99579.84;4420538;32;20523;-69
2020/12/06 03:28:35;;;;;;;1.62;1.62;;;;;;;0.54;100.00;99595.59;4415779;32;20076;-69
2020/12/06 03:31:00;;;;;;;1.50;1.50;;;;;;;0.50;100.00;99596.91;4420122;32;20069;-72
2020/12/06 03:33:26;;;;;;;1.40;1.40;;;;;;;0.49;100.00;99596.09;4424890;32;20065;-72
2020/12/06 03:35:51;;;;;;;1.50;1.50;;;;;;;0.50;100.00;99591.63;4423836;32;20075;-70
2020/12/06 03:38:17;;;;;;;1.50;1.50;;;;;;;0.51;100.00;99588.03;4424899;32;20068;-70
2020/12/06 03:40:42;;;;;;;1.70;1.70;;;;;;;0.49;100.00;99593.44;4417343;32;20140;-70
2020/12/06 03:43:07;;;;;;;1.60;1.60;;;;;;;0.47;100.00;99595.44;4411028;32;20078;-70
2020/12/06 03:45:33;;;;;;;2.58;1.98;;;;;;;0.44;100.00;99593.16;4430516;32;20059;-70
2020/12/06 03:47:58;;;;;;;1.83;1.73;;;;;;;0.43;100.00;99582.78;4410258;32;20810;-70
2020/12/06 03:50:24;;;;;;;1.60;1.60;;;;;;;0.42;100.00;99574.09;4420960;32;20550;-70
2020/12/06 03:52:49;;;;;;;1.52;1.52;;;;;;;0.43;100.00;99572.25;4401592;32;20081;-70
2020/12/06 03:55:15;;;;;;;1.83;1.73;;;;;;;0.41;100.00;99584.78;4429443;32;21017;-69
2020/12/06 03:57:40;;;;;;;2.03;1.92;;;;;;;0.42;100.00;99566.19;4413321;32;20065;-70
2020/12/06 04:00:06;;;;;;;1.50;1.50;;;;;;;0.43;100.00;99556.47;4416004;32;20073;-69
2020/12/06 04:02:31;;;;;;;1.55;1.55;;;;;;;0.43;100.00;99559.13;4414873;32;21014;-71
2020/12/06 04:04:57;;;;;;;1.70;1.70;;;;;;;0.41;100.00;99564.53;4406122;32;20118;-69
2020/12/06 04:07:22;;;;;;;1.40;1.40;;;;;;;0.41;100.00;99561.09;4410416;32;20080;-70
2020/12/06 04:09:47;;;;;;;1.45;1.45;;;;;;;0.39;100.00;99552.56;4407369;32;20065;-70
2020/12/06 04:12:13;;;;;;;1.60;1.60;;;;;;;0.31;100.00;99533.19;4411010;32;20095;-69
2020/12/06 04:14:38;;;;;;;1.50;1.50;;;;;;;0.37;100.00;99547.47;4400254;32;20771;-70
2020/12/06 04:17:04;;;;;;;1.60;1.60;;;;;;;0.37;100.00;99542.22;4391806;32;20080;-70
2020/12/06 04:19:29;;;;;;;1.50;1.50;;;;;;;0.33;100.00;99525.12;4417462;32;20219;-69
2020/12/06 04:21:54;;;;;;;1.40;1.40;;;;;;;0.27;100.00;99531.88;4406978;32;20064;-70
2020/12/06 04:24:20;;;;;;;1.60;1.60;;;;;;;0.23;100.00;99535.84;4431153;32;20517;-69
2020/12/06 04:26:45;;;;;;;1.50;1.50;;;;;;;0.18;100.00;99528.47;4414377;32;20153;-69
2020/12/06 04:29:11;;;;;;;1.60;1.60;;;;;;;0.14;100.00;99531.62;4407492;32;20149;-69
2020/12/06 04:31:36;;;;;;;1.45;1.45;;;;;;;0.09;100.00;99536.56;4421026;32;20098;-69
2020/12/06 04:34:01;;;;;;;2.08;1.98;;;;;;;0.09;100.00;99540.00;4413575;32;20083;-69
2020/12/06 04:36:27;;;;;;;1.58;1.58;;;;;;;-0.83;100.00;99392.41;4411594;32;20069;-69
2020/12/06 04:38:52;;;;;;;1.40;1.40;;;;;;;0.04;100.00;99531.00;4410589;32;20061;-69
2020/12/06 04:41:18;;;;;;;1.60;1.60;;;;;;;0.05;100.00;99537.88;4409549;32;20080;-70
2020/12/06 04:43:43;;;;;;;1.50;1.50;;;;;;;0.06;100.00;99535.06;4411405;32;20677;-71
2020/12/06 04:46:09;;;;;;;1.73;1.73;;;;;;;0.06;100.00;99536.91;4420121;32;20122;-71
2020/12/06 04:49:03;;;;;;;1.60;1.60;;;;;;;0.08;100.00;99548.88;4421098;32;20085;-70
2020/12/06 04:51:28;;;;;;;1.50;1.50;;;;;;;0.09;100.00;99553.16;4418642;32;20848;-70
2020/12/06 04:54:03;;;;;;;1.40;1.40;;;;;;;0.09;100.00;99554.97;4407151;32;20235;-69
2020/12/06 04:56:29;;;;;;;1.60;1.60;;;;;;;0.12;100.00;99562.50;4389243;32;20483;-70
2020/12/06 04:58:57;;;;;;;1.48;1.48;;;;;;;0.13;100.00;99561.53;4403198;32;20077;-70
2020/12/06 05:01:22;;;;;;;1.50;1.50;;;;;;;0.17;100.00;99541.78;4416581;32;20084;-69
2020/12/06 05:03:49;;;;;;;1.60;1.60;;;;;;;0.20;100.00;99536.19;4411773;32;20719;-70
2020/12/06 05:06:14;;;;;;;3.35;3.25;;;;;;;0.23;100.00;99535.03;4412552;32;20150;-69
2020/12/06 05:08:40;;;;;;;1.60;1.60;;;;;;;0.26;100.00;99532.88;4415843;32;20079;-69
2020/12/06 05:11:05;;;;;;;1.65;1.65;;;;;;;0.21;100.00;99535.19;4411434;32;20072;-70
2020/12/06 05:13:30;;;;;;;1.40;1.40;;;;;;;-0.54;100.00;99415.50;4416011;32;20153;-69
2020/12/06 05:15:56;;;;;;;1.60;1.60;;;;;;;0.33;100.00;99536.47;4412905;32;20079;-70
2020/12/06 05:18:24;;;;;;;1.70;1.70;;;;;;;0.36;100.00;99525.62;4402820;32;20067;-71
2020/12/06 05:20:51;;;;;;;1.70;1.70;;;;;;;0.29;100.00;99503.59;4404419;32;20136;-70
2020/12/06 05:23:16;;;;;;;1.50;1.50;;;;;;;0.39;100.00;99524.44;4400035;32;20126;-70
2020/12/06 05:25:42;;;;;;;1.85;1.83;;;;;;;0.30;100.00;99512.31;4415666;32;20555;-69
2020/12/06 05:28:07;;;;;;;1.40;1.40;;;;;;;0.42;100.00;99534.63;4413320;32;20981;-70
2020/12/06 05:30:32;;;;;;;2.30;2.20;;;;;;;0.45;100.00;99529.03;4405366;32;20175;-71
2020/12/06 05:32:58;;;;;;;1.50;1.50;;;;;;;0.47;100.00;99526.22;4421384;32;20166;-71
2020/12/06 05:35:23;;;;;;;1.48;1.48;;;;;;;0.49;100.00;99521.59;4416308;32;20081;-71
2020/12/06 05:37:49;;;;;;;1.60;1.60;;;;;;;0.50;100.00;99523.22;4401905;32;20153;-69
2020/12/06 05:40:16;;;;;;;1.60;1.60;;;;;;;-0.20;100.00;99412.59;4405184;32;20076;-71
2020/12/06 05:42:42;;;;;;;2.00;1.90;;;;;;;0.54;100.00;99524.53;4404414;32;20475;-71
2020/12/06 05:45:11;;;;;;;3.08;2.08;;;;;;;0.52;100.00;99523.91;4403457;32;20077;-71
2020/12/06 05:47:36;;;;;;;1.40;1.40;;;;;;;0.57;100.00;99521.56;4421914;32;20323;-70
2020/12/06 05:50:03;;;;;;;1.70;1.65;;;;;;;0.57;100.00;99524.22;4418465;32;20088;-71
2020/12/06 05:52:30;;;;;;;1.50;1.50;;;;;;;0.60;100.00;99525.66;4426818;32;20099;-71
2020/12/06 05:54:56;;;;;;;1.67;1.67;;;;;;;0.64;100.00;99533.03;4429245;32;20069;-69
2020/12/06 05:57:24;;;;;;;1.60;1.60;;;;;;;0.66;100.00;99536.31;4415163;32;20126;-69
2020/12/06 05:59:49;;;;;;;1.65;1.65;;;;;;;0.65;100.00;99533.84;4430216;32;20207;-69
2020/12/06 06:02:15;;;;;;;1.85;1.75;;;;;;;0.69;100.00;99541.25;4399830;32;20080;-69
2020/12/06 06:04:40;;;;;;;1.70;1.60;;;;;;;0.69;100.00;99545.66;4426096;32;20599;-69
2020/12/06 06:07:12;;;;;;;2.62;2.50;;;;;;;0.69;100.00;99541.25;4426325;32;20111;-71
2020/12/06 06:09:41;;;;;;;1.55;1.55;;;;;;;0.70;100.00;99540.22;4418730;32;20891;-69
2020/12/06 06:12:09;;;;;;;1.55;1.55;;;;;;;0.72;100.00;99543.50;4403898;32;20072;-70
2020/12/06 06:14:34;;;;;;;1.60;1.60;;;;;;;0.76;100.00;99549.28;4431975;32;20183;-69
2020/12/06 06:17:00;;;;;;;1.40;1.40;;;;;;;0.78;100.00;99533.28;4423649;32;20073;-70
2020/12/06 06:19:25;;;;;;;1.30;1.30;;;;;;;0.80;100.00;99532.12;4410576;32;20091;-71
2020/12/06 06:21:51;;;;;;;1.50;1.50;;;;;;;0.80;100.00;99532.12;4398954;32;20079;-71
2020/12/06 06:24:23;;;;;;;2.17;2.10;;;;;;;0.75;100.00;99535.28;4422681;32;20092;-71
2020/12/06 06:26:48;;;;;;;1.52;1.52;;;;;;;0.65;100.00;99542.56;4418234;32;20069;-69
2020/12/06 06:29:14;;;;;;;1.60;1.60;;;;;;;0.65;100.00;99531.22;4413825;32;20091;-70
2020/12/06 06:31:41;;;;;;;1.50;1.50;;;;;;;0.64;100.00;99532.19;4421032;32;20891;-70
2020/12/06 06:34:06;;;;;;;2.05;1.95;;;;;;;0.67;100.00;99534.50;4414511;32;20895;-70
2020/12/06 06:36:32;;;;;;;1.60;1.60;;;;;;;0.23;100.00;99456.16;4417891;32;20073;-69
2020/12/06 06:38:57;;;;;;;1.50;1.50;;;;;;;0.67;100.00;99532.72;4416436;32;20081;-70
2020/12/06 06:41:24;;;;;;;1.50;1.50;;;;;;;0.69;100.00;99522.81;4416846;32;20088;-69
2020/12/06 06:43:49;;;;;;;1.40;1.40;;;;;;;0.73;100.00;99521.47;4426200;32;20127;-70
2020/12/06 06:46:21;;;;;;;1.50;1.50;;;;;;;0.57;100.00;99495.25;4412620;32;20097;-71
2020/12/06 06:48:50;;;;;;;1.58;1.58;;;;;;;0.69;100.00;99501.75;4424543;32;20141;-71
2020/12/06 06:51:19;;;;;;;1.40;1.40;;;;;;;0.75;100.00;99506.31;4431497;32;20131;-70
2020/12/06 06:53:45;;;;;;;1.50;1.50;;;;;;;0.77;100.00;99500.88;4420230;32;20162;-69
2020/12/06 06:56:10;;;;;;;2.03;1.92;;;;;;;0.76;100.00;99488.72;4425287;32;20175;-69
2020/12/06 06:58:36;;;;;;;1.45;1.45;;;;;;;0.73;100.00;99487.25;4412507;32;20167;-69
2020/12/06 07:01:17;;;;;;;1.40;1.40;;;;;;;0.76;100.00;99488.72;4426326;32;20511;-71
2020/12/06 07:03:47;;;;;;;1.60;1.60;;;;;;;0.71;100.00;99486.62;4442428;32;20565;-70
2020/12/06 07:06:45;;;;;;;1.60;1.60;;;;;;;0.75;100.00;99502.88;4415249;32;20923;-70
2020/12/06 07:09:10;;;;;;;1.50;1.50;;;;;;;0.74;100.00;99502.06;4427533;32;20634;-70
2020/12/06 07:11:37;;;;;;;3.35;2.12;;;;;;;0.76;100.00;99504.53;4415820;32;20060;-70
2020/12/06 07:14:02;;;;;;;1.60;1.60;;;;;;;0.77;100.00;99510.59;4421003;32;20115;-70
2020/12/06 07:16:28;;;;;;;2.00;1.98;;;;;;;0.78;100.00;99507.78;4425745;32;20084;-71
2020/12/06 07:18:53;;;;;;;1.70;1.70;;;;;;;0.80;100.00;99497.09;4418369;32;20718;-70
2020/12/06 07:21:19;;;;;;;1.65;1.65;;;;;;;0.80;100.00;99487.38;4427854;32;20064;-70
2020/12/06 07:23:44;;;;;;;1.42;1.42;;;;;;;0.61;100.00;99430.75;4413902;32;20072;-70
2020/12/06 07:26:09;;;;;;;2.08;1.98;;;;;;;0.84;100.00;99459.69;4426331;32;20169;-70
2020/12/06 07:28:35;;;;;;;1.70;1.70;;;;;;;0.86;100.00;99455.09;4425357;32;20069;-70
2020/12/06 07:31:00;;;;;;;1.60;1.60;;;;;;;0.86;100.00;99467.41;4429845;32;20135;-69
2020/12/06 07:33:25;;;;;;;1.60;1.60;;;;;;;0.86;100.00;99467.41;4426794;32;20679;-69
2020/12/06 07:35:51;;;;;;;2.22;2.05;;;;;;;0.87;100.00;99474.34;4429316;32;20095;-71
2020/12/06 07:38:16;;;;;;;1.60;1.60;;;;;;;0.87;100.00;99487.50;4405450;32;20805;-70
2020/12/06 07:40:42;;;;;;;2.08;1.98;;;;;;;0.88;100.00;99492.59;4429131;32;20076;-69
2020/12/06 07:43:11;;;;;;;1.85;1.85;;;;;;;0.71;100.00;99473.44;4419737;32;20612;-68
2020/12/06 07:45:37;;;;;;;1.83;1.83;;;;;;;0.92;100.00;99500.97;4415214;32;20534;-69
2020/12/06 07:48:03;;;;;;;1.60;1.60;;;;;;;0.91;100.00;99502.78;4426735;32;20073;-70
2020/12/06 07:50:28;;;;;;;1.60;1.60;;;;;;;0.96;100.00;99499.59;4430590;32;20086;-70
2020/12/06 07:52:53;;;;;;;1.50;1.50;;;;;;;1.00;100.00;99508.81;4418257;32;21048;-70
2020/12/06 07:55:19;;;;;;;1.50;1.50;;;;;;;1.03;100.00;99516.34;4421065;32;20099;-70
2020/12/06 07:57:49;;;;;;;1.80;1.70;;;;;;;1.06;100.00;99526.53;4426273;32;20170;-69
2020/12/06 08:00:19;;;;;;;1.60;1.60;;;;;;;1.03;100.00;99520.78;4423564;32;20729;-70
2020/12/06 08:02:56;;;;;;;1.50;1.50;;;;;;;1.15;100.00;99529.91;4413698;32;21132;-70
2020/12/06 08:05:22;;;;;;;1.50;1.50;;;;;;;1.19;100.00;99530.38;4424042;32;20085;-69
2020/12/06 08:07:51;;;;;;;1.70;1.70;;;;;;;1.22;100.00;99524.75;4419505;32;20123;-69
2020/12/06 08:10:17;;;;;;;1.90;1.83;;;;;;;1.24;100.00;99530.66;4424356;32;20137;-69
2020/12/06 08:12:44;;;;;;;1.48;1.48;;;;;;;1.27;100.00;99540.84;4421669;32;20872;-69
2020/12/06 08:15:10;;;;;;;1.58;1.58;;;;;;;1.32;100.00;99541.16;4417150;32;20096;-70
2020/12/06 08:17:46;;;;;;;1.73;1.73;;;;;;;1.28;100.00;99511.72;4430593;32;20085;-70
2020/12/06 08:20:12;;;;;;;3.00;2.80;;;;;;;1.38;100.00;99519.38;4416021;32;20137;-69
2020/12/06 08:22:50;;;;;;;2.42;2.22;;;;;;;1.43;100.00;99511.75;4416461;32;20060;-68
2020/12/06 08:25:19;;;;;;;1.70;1.70;;;;;;;1.46;100.00;99513.19;4418547;32;20106;-68
2020/12/06 08:27:45;;;;;;;1.60;1.60;;;;;;;1.51;100.00;99524.03;4423647;32;20171;-69
2020/12/06 08:30:12;;;;;;;1.95;1.90;;;;;;;1.61;100.00;99523.78;4414333;32;21074;-68
2020/12/06 08:32:37;;;;;;;1.60;1.60;;;;;;;1.65;100.00;99520.59;4418258;32;20072;-68
2020/12/06 08:35:03;;;;;;;2.10;2.00;;;;;;;1.69;100.00;99515.78;4409911;32;20712;-69
2020/12/06 08:37:35;;;;;;;1.62;1.62;;;;;;;1.73;100.00;99517.06;4422653;32;20087;-71
2020/12/06 08:40:02;;;;;;;1.65;1.65;;;;;;;1.74;100.00;99497.59;4429786;32;20875;-70
2020/12/06 08:42:27;;;;;;;1.60;1.60;;;;;;;1.76;100.00;99486.88;4412958;32;20634;-68
2020/12/06 08:44:56;;;;;;;1.50;1.50;;;;;;;1.80;100.00;99496.91;4407486;32;20092;-69
2020/12/06 08:47:22;;;;;;;1.50;1.50;;;;;;;1.77;100.00;99499.06;4409651;32;20079;-69
2020/12/06 08:49:48;;;;;;;1.70;1.70;;;;;;;1.81;100.00;99495.91;4426134;32;20081;-70
2020/12/06 08:52:22;;;;;;;1.60;1.60;;;;;;;1.86;100.00;99496.19;4417178;32;20558;-72
2020/12/06 08:54:49;;;;;;;1.40;1.40;;;;;;;1.94;100.00;99505.00;4395387;32;20632;-70
2020/12/06 08:57:14;;;;;;;1.70;1.70;;;;;;;2.00;99.58;99512.16;4396607;32;20081;-70
2020/12/06 08:59:40;;;;;;;1.60;1.60;;;;;;;1.93;99.93;99506.00;4411122;32;20137;-70
2020/12/06 09:02:06;;;;;;;1.67;1.67;;;;;;;1.92;100.00;99513.09;4406182;32;20069;-70
2020/12/06 09:04:35;;;;;;;1.80;1.80;;;;;;;1.97;100.00;99513.37;4424242;32;20069;-68
2020/12/06 09:07:03;;;;;;;1.65;1.65;;;;;;;1.97;100.00;99517.81;4406770;32;20978;-69
2020/12/06 09:09:29;;;;;;;1.50;1.50;;;;;;;2.04;100.00;99524.81;4406137;32;20069;-71
2020/12/06 09:11:54;;;;;;;1.83;1.80;;;;;;;2.04;100.00;99529.28;4414203;32;20111;-69
2020/12/06 09:14:20;;;;;;;1.80;1.80;;;;;;;2.08;100.00;99508.63;4417373;32;20516;-68
2020/12/06 09:16:45;;;;;;;1.52;1.52;;;;;;;2.24;100.00;99511.06;4392380;32;20984;-67
2020/12/06 09:19:11;;;;;;;1.60;1.60;;;;;;;2.03;100.00;99465.16;4401217;32;20096;-69
2020/12/06 09:21:36;;;;;;;1.60;1.60;;;;;;;2.44;99.96;99500.78;4393151;32;20088;-71
2020/12/06 09:24:02;;;;;;;1.70;1.70;;;;;;;2.52;98.91;99498.03;4399696;32;20065;-72
2020/12/06 09:26:27;;;;;;;1.95;1.85;;;;;;;2.55;98.76;99487.09;4400548;32;20881;-70
2020/12/06 09:28:53;;;;;;;1.90;1.80;;;;;;;2.62;98.27;99488.00;4393457;32;20077;-67
2020/12/06 09:31:22;;;;;;;1.75;1.75;;;;;;;2.69;98.01;99487.22;4411187;32;20073;-67
2020/12/06 09:33:47;;;;;;;2.05;1.95;;;;;;;2.44;97.83;99434.78;4410611;32;20150;-70
2020/12/06 09:36:13;;;;;;;1.80;1.77;;;;;;;2.76;97.46;99488.13;4401587;32;20096;-70
2020/12/06 09:38:38;;;;;;;1.90;1.80;;;;;;;2.82;97.24;99482.09;4401209;32;20066;-70
2020/12/06 09:41:03;;;;;;;2.05;1.95;;;;;;;2.93;96.37;99480.78;4392945;32;21268;-69
2020/12/06 09:43:29;;;;;;;2.35;1.80;;;;;;;2.35;95.82;99388.41;4411290;32;20083;-69
2020/12/06 09:45:54;;;;;;;1.70;1.70;;;;;;;2.94;96.34;99477.13;4409607;32;20080;-67
2020/12/06 09:48:20;;;;;;;7.70;2.72;;;;;;;2.97;95.60;99476.75;4418286;32;20199;-68
2020/12/06 09:50:45;;;;;;;2.92;2.83;;;;;;;2.98;95.27;99481.03;4368830;32;20231;-68
2020/12/06 09:53:11;;;;;;;3.28;3.17;;;;;;;3.16;94.98;99496.44;4354372;32;20103;-66
2020/12/06 09:55:36;;;;;;;2.20;2.10;;;;;;;3.26;94.78;99496.94;4396087;32;20065;-67
2020/12/06 09:58:02;;;;;;;1.75;1.75;;;;;;;3.28;94.62;99479.06;4406725;32;20172;-69
2020/12/06 10:00:27;;;;;;;2.10;2.00;;;;;;;3.43;93.77;99494.00;4422113;32;20069;-70
2020/12/06 10:02:53;;;;;;;1.60;1.60;;;;;;;3.56;93.55;99496.75;4431696;32;20198;-70
2020/12/06 10:05:19;;;;;;;1.92;1.83;;;;;;;3.56;94.02;99497.56;4429565;32;20080;-70
2020/12/06 10:07:44;;;;;;;1.80;1.80;;;;;;;3.52;93.92;99501.62;4419962;32;21147;-69
2020/12/06 10:10:10;;;;;;;3.12;2.90;;;;;;;3.50;94.49;99508.94;4415261;32;20195;-69
2020/12/06 10:12:35;;;;;;;1.80;1.80;;;;;;;3.54;94.33;99507.53;4419694;32;20989;-69
2020/12/06 10:15:01;;;;;;;1.70;1.70;;;;;;;3.68;94.20;99495.22;4416340;32;20117;-69
2020/12/06 10:17:26;;;;;;;1.80;1.80;;;;;;;3.81;93.52;99480.44;4419520;32;20203;-67
2020/12/06 10:19:52;;;;;;;1.80;1.80;;;;;;;3.93;93.01;99481.53;4418855;32;20075;-68
2020/12/06 10:22:17;;;;;;;1.70;1.70;;;;;;;3.61;92.35;99425.59;4417368;32;20329;-69
2020/12/06 10:24:43;;;;;;;1.75;1.75;;;;;;;4.07;92.02;99483.25;4436018;32;20087;-70
2020/12/06 10:27:08;;;;;;;1.80;1.80;;;;;;;4.06;91.99;99476.31;4406862;32;20655;-70
2020/12/06 10:29:33;;;;;;;2.05;1.95;;;;;;;4.11;92.28;99479.19;4412486;32;20763;-71
2020/12/06 10:32:00;;;;;;;1.85;1.83;;;;;;;4.12;92.72;99475.53;4419649;32;20655;-71
2020/12/06 10:34:26;;;;;;;2.10;2.00;;;;;;;4.14;92.91;99470.06;4416308;32;20730;-70
2020/12/06 10:36:52;;;;;;;3.12;2.92;;;;;;;4.14;92.45;99470.84;4416768;32;20068;-70
2020/12/06 10:39:18;;;;;;;3.28;3.08;;;;;;;4.16;92.40;99480.41;4410616;32;20170;-69
2020/12/06 10:41:47;;;;;;;3.15;3.00;;;;;;;4.18;92.53;99468.63;4428090;32;20822;-71
2020/12/06 10:44:13;;;;;;;2.60;2.50;;;;;;;4.24;93.18;99465.22;4408419;32;20089;-70
2020/12/06 10:46:38;;;;;;;3.15;3.00;;;;;;;4.23;93.04;99473.34;4418663;32;20099;-68
2020/12/06 10:49:03;;;;;;;1.75;1.75;;;;;;;4.28;92.19;99468.28;4412206;32;20683;-69
2020/12/06 10:51:29;;;;;;;2.00;1.90;;;;;;;4.25;91.66;99469.47;4424711;32;20101;-69
2020/12/06 10:53:54;;;;;;;1.65;1.65;;;;;;;4.19;91.92;99461.50;4428072;32;20092;-69
2020/12/06 10:56:20;;;;;;;2.00;1.90;;;;;;;4.23;91.51;99465.41;4410844;32;20069;-69
2020/12/06 10:58:46;;;;;;;2.33;2.22;;;;;;;4.23;91.67;99460.91;4419225;32;21140;-70
2020/12/06 11:01:11;;;;;;;2.10;2.00;;;;;;;4.03;92.16;99433.56;4395622;32;20080;-68
2020/12/06 11:03:36;;;;;;;1.80;1.80;;;;;;;4.24;91.75;99456.44;4417097;32;21030;-70
2020/12/06 11:06:02;;;;;;;2.95;2.75;;;;;;;4.23;92.16;99457.47;4397067;32;20065;-71
2020/12/06 11:08:27;;;;;;;2.00;1.90;;;;;;;4.29;92.25;99454.00;4411630;32;20066;-71
2020/12/06 11:10:53;;;;;;;2.10;2.00;;;;;;;4.30;93.49;99450.38;4397402;32;20697;-69
2020/12/06 11:13:18;;;;;;;2.30;2.20;;;;;;;4.35;92.89;99455.03;4410917;32;20072;-71
2020/12/06 11:15:43;;;;;;;2.20;2.10;;;;;;;4.49;92.36;99457.53;4409445;32;20964;-72
2020/12/06 11:18:09;;;;;;;1.80;1.80;;;;;;;4.58;92.63;99462.66;4419031;32;20175;-70
2020/12/06 11:20:34;;;;;;;2.53;2.33;;;;;;;4.61;92.31;99459.63;4416146;32;20076;-71
2020/12/06 11:23:00;;;;;;;1.80;1.80;;;;;;;4.60;91.33;99464.09;4407733;32;20524;-70
2020/12/06 11:25:25;;;;;;;1.83;1.83;;;;;;;4.58;91.99;99457.38;4411523;32;20061;-70
2020/12/06 11:27:51;;;;;;;2.15;2.08;;;;;;;4.58;90.97;99473.25;4398501;32;20081;-70
2020/12/06 11:30:16;;;;;;;2.10;2.00;;;;;;;3.01;91.51;99235.81;4402074;32;20142;-72
2020/12/06 11:32:41;;;;;;;2.20;2.10;;;;;;;4.36;91.82;99436.31;4407881;32;20068;-69